메인 페이지
METAR-TAF:

METAR-TAF

공항 :

히스로 공항

런던 / 히드로, 잉글랜드

위도: 51-29N, 경도: 000-27W, 고도: 24m

현재 날씨관측

예보는 20분 전, 23:50시(UTC)에 발표되었습니다.
여러 방향의 바람 2kt
온도 7°C
습도 81%
기압 1034 hPa
시정: 8000m

METAR: EGLL 232350Z AUTO VRB02KT 8000 NCD 07/04 Q1034 NOSIG

시각: 00:10 (00:10 UTC)

예보

예보는 1 시간 13분 전, 22:57시(UTC)에 발표되었습니다.
예보 대상 시간: 24일 00시부터 25일 06시까지 (UTC)
남동5kt
시정: 6000m
일시적
24일 00시부터 24일 09시까지 (UTC)
시정: 3000m
박무
확률 30%
24일 04시부터 24일 09시까지 (UTC)
시정: 0300m
안개
전환 중
24일 09시부터 24일 12시까지 (UTC)
시정 10km 이상
1500m 미만 상공 구름 및 적란운 없음
전환 중
24일 18시부터 24일 21시까지 (UTC)
시정: 6000m
확률 40%
24일 21시부터 25일 06시까지 (UTC)
시정: 3000m
박무

TAF: EGLL 232257Z 2400/2506 13005KT 6000 NSC TEMPO 2400/2409 3000 BR PROB30 2404/2409 0300 FG VV/// BECMG 2409/2412 CAVOK BECMG 2418/2421 6000 PROB40 2421/2506 3000 BR

4,000개 이상의 공항 관측 자료 및 예보 (METAR 및 TAF 보고).

지도상에서 검색 가능한 기상관측소가 노란 점과 빨간 점으로 표시되어 있습니다.

기상관측소 명을 보려면 표시 위로 마우스를 이동하세요.

날씨 관측과 예보를 보려면 클릭하세요.

지도 변경 : 확대하려면 엑스 표시가 있는 녹색 버튼, 축소하려면 빼기 표시가 있는 녹색 버튼, 다음 페이지의 지도를 보려면 녹색 화살표를 클릭하세요.


METAR-TAF: